Cleveland, OH

10:13 AM EST on March 01, 2015 (GMT -0500)
Cleveland-Hopkins International | Change Station
CLOSE
Current Station
Airport
Location: Cleveland,
Elevation: 804 ft
Nearby Weather Stations

Elev 804 ft 41.40 °N, 81.85 °W | Updated 22 minutes ago

Light Snow
Light Snow Mist
24 °F
Feels Like 20 °F
N
4
Wind Variable Wind from SSW

Today
High -- | Low -- °F
--% Chance of Precip.
Yesterday
High -- | Low -- °F
Precip. -- in
7:02 AM 6:17 PM
Waxing Gibbous, 85% visible
Pressure 30.44 in
Visibility 0.8 miles
Clouds Mostly Cloudy 2200 ft
Overcast 3200 ft
Windchill 20 °F
Dew Point 22 °F
Humidity 91%
Rainfall 0.30 in
Snow Depth Not available.
UV 1 out of 12
Pollen .40 out of 12
Air Quality Not available.
Flu Activity Not available.
METAR KCLE 011451Z 21003KT 3/4SM -SN BR BKN022 OVC032 M04/M06 A3040 RMK AO2 SLP306 P0002 60004 T10441056 56009 $

More Conditions Fewer Conditions

Pressure 30.44 in
Visibility 0.8 miles
Clouds Mostly Cloudy 2200 ft
Overcast 3200 ft
Windchill 20 °F
Dew Point 22 °F
Humidity 91%
Rainfall 0.30 in
Snow Depth Not available.
UV 1 out of 12
Pollen .40 out of 12
Air Quality Not available.
Flu Activity Not available.
METAR KCLE 011451Z 21003KT 3/4SM -SN BR BKN022 OVC032 M04/M06 A3040 RMK AO2 SLP306 P0002 60004 T10441056 56009 $

More Conditions Fewer Conditions

10-Day Weather Forecast

Almanac

Astronomy

Mar. 01, 2015 Rise Set
Actual Time
Civil Twilight
Nautical Twilight
Astronomical Twilight
Moon
Length of Visible Light
Length of Day
Tomorrow will be .
, % of the Moon is Illuminated

Today's Extremes

State Highs State Lows

Community

WunderPhotos

Upload Photos

1,801,410 photos uploaded!

WunderBlogs® & News

Nearby

Air Quality

  Air Quality AQ Index Pollutant
Not available.

Snow Depth

Station Depth Elevation

Earthquake Activity

City Distance Mag. Time & Date
Minimum magnitude displayed is 2.5.

Coastal Water Temperatures

Place Temperature

Nearby Weather Stations